Flight Briefing for CPX327

Departure Arrival
Cincinnati/Northern Kentucky International Airport (KCVG)
Click to view FAA NOTAMS
Miami International Airport (KMIA)
Click to view FAA NOTAMS
Departure Time Arrival Time
N/A N/A
Aircraft Distance
B767-300BDSF 898nm
Departure METAR Arrival METAR
KCVG 152052Z 31011KT 10SM BKN100 OVC120 01/M08 A2990 RMK AO2 SLP127 T00111078 51012 KMIA 152053Z 10006KT 10SM BKN034 OVC250 25/19 A2993 RMK AO2 SLP134 T02500189 56013
Suggested Route
KENLN4 HYK VXV J43 ATL J89 OTK JUULI SSCOT5


View recent IFR Routes data
Notes



Charts and Procedures

Charts for KCVG
No chart available
Charts for KMIA
No chart available

Ventusky Weather